Time;durP1;ratioP1;P1;durP2;ratioP2;P2;SDS_P1;SDS_P2;PMS_P1;PMS_P2;Temp;Humidity;BMP_temperature;BMP_pressure;BME280_temperature;BME280_humidity;BME280_pressure;Samples;Min_cycle;Max_cycle;Signal;HPM_P1;HPM_P2
2022/06/12 00:00:36;;;;;;;4.83;4.10;;;;;;;;;;5039227;28;20183;-85
2022/06/12 00:03:04;;;;;;;4.60;3.10;;;14.40;99.90;;;;;;5040313;28;20185;-84
2022/06/12 00:05:34;;;;;;;8.47;4.70;;;14.40;99.90;;;;;;5040204;28;20205;-85
2022/06/12 00:08:00;;;;;;;4.43;3.00;;;14.40;99.90;;;;;;5039326;28;20224;-84
2022/06/12 00:10:26;;;;;;;3.33;2.97;;;;;;;;;;5044427;28;20546;-85
2022/06/12 00:12:52;;;;;;;4.47;3.43;;;;;;;;;;5039382;28;20182;-85
2022/06/12 00:15:21;;;;;;;4.77;3.33;;;14.20;99.90;;;;;;5039136;28;20205;-84
2022/06/12 00:17:47;;;;;;;3.73;3.07;;;;;;;;;;5040491;28;20178;-82
2022/06/12 00:20:15;;;;;;;5.73;3.70;;;;;;;;;;5040287;28;20232;-84
2022/06/12 00:22:42;;;;;;;5.20;3.27;;;14.10;99.90;;;;;;5040358;28;20228;-85
2022/06/12 00:25:10;;;;;;;5.97;3.93;;;14.10;99.90;;;;;;5040012;28;20265;-85
2022/06/12 00:27:36;;;;;;;5.70;3.40;;;14.10;99.90;;;;;;5039337;28;20182;-84
2022/06/12 00:30:04;;;;;;;5.37;3.33;;;14.10;99.90;;;;;;5039700;28;20729;-85
2022/06/12 00:32:30;;;;;;;5.87;3.70;;;;;;;;;;5038947;28;20182;-83
2022/06/12 00:34:57;;;;;;;5.90;3.17;;;14.00;99.90;;;;;;5039067;28;20206;-85
2022/06/12 00:37:25;;;;;;;6.13;3.40;;;14.00;99.90;;;;;;5040584;28;20629;-85
2022/06/12 00:39:54;;;;;;;4.27;3.20;;;14.00;99.90;;;;;;5039105;28;20646;-85
2022/06/12 00:42:31;;;;;;;4.13;3.10;;;14.00;99.90;;;;;;5039533;28;20214;-85
2022/06/12 00:44:59;;;;;;;4.77;3.43;;;14.00;99.90;;;;;;5039328;28;20186;-85
2022/06/12 00:47:26;;;;;;;4.13;2.93;;;13.90;99.90;;;;;;5039582;28;20182;-85
2022/06/12 00:50:04;;;;;;;3.63;2.57;;;13.90;99.90;;;;;;5038438;28;20271;-85
2022/06/12 00:52:36;;;;;;;3.63;2.57;;;13.90;99.90;;;;;;5040038;28;20178;-83
2022/06/12 00:55:14;;;;;;;3.63;2.60;;;13.90;99.90;;;;;;5039906;28;20194;-83
2022/06/12 00:57:40;;;;;;;3.00;2.43;;;;;;;;;;5040878;28;20608;-83
2022/06/12 01:00:11;;;;;;;3.27;2.70;;;13.80;99.90;;;;;;5041297;28;20201;-82
2022/06/12 01:02:37;;;;;;;3.07;2.77;;;13.70;99.90;;;;;;5041755;28;20538;-83
2022/06/12 01:07:53;;;;;;;3.67;2.90;;;13.60;99.90;;;;;;5042526;28;20236;-85
2022/06/12 01:10:21;;;;;;;4.07;2.73;;;13.60;99.90;;;;;;5040712;28;20225;-85
2022/06/12 01:12:54;;;;;;;3.80;2.90;;;13.60;99.90;;;;;;5041234;28;20269;-84
2022/06/12 01:15:30;;;;;;;3.27;2.57;;;13.50;99.90;;;;;;5040071;28;20195;-85
2022/06/12 01:17:58;;;;;;;4.57;2.80;;;13.40;99.90;;;;;;5040168;28;20162;-86
2022/06/12 01:20:31;;;;;;;4.93;2.83;;;13.40;99.90;;;;;;5039260;28;20174;-83
2022/06/12 01:23:11;;;;;;;3.87;2.83;;;13.40;99.90;;;;;;5037706;28;20182;-85
2022/06/12 01:26:15;;;;;;;3.30;2.97;;;13.20;99.90;;;;;;5038849;28;20182;-85
2022/06/12 01:29:03;;;;;;;3.90;2.90;;;13.30;99.90;;;;;;5036908;28;20619;-85
2022/06/12 01:31:34;;;;;;;4.83;3.20;;;13.30;99.90;;;;;;5039421;28;20174;-84
2022/06/12 01:34:06;;;;;;;3.13;2.83;;;13.30;99.90;;;;;;5038272;28;20202;-85
2022/06/12 01:36:56;;;;;;;3.27;2.90;;;13.30;99.90;;;;;;5037913;28;20188;-85
2022/06/12 01:39:39;;;;;;;3.27;2.60;;;12.90;99.90;;;;;;5038271;28;20221;-85
2022/06/12 01:42:29;;;;;;;5.07;3.50;;;13.20;99.90;;;;;;5037937;28;20186;-85
2022/06/12 01:45:20;;;;;;;4.03;3.20;;;13.10;99.90;;;;;;5040544;28;20178;-84
2022/06/12 01:48:28;;;;;;;3.80;3.00;;;13.00;99.90;;;;;;5036856;28;20197;-84
2022/06/12 01:51:05;;;;;;;4.37;3.33;;;13.10;99.90;;;;;;5027177;28;20190;-82
2022/06/12 01:53:56;;;;;;;5.37;2.97;;;13.00;99.90;;;;;;5039226;28;20598;-83
2022/06/12 01:56:37;;;;;;;4.27;3.07;;;13.10;99.90;;;;;;5036634;28;20193;-83
2022/06/12 01:59:19;;;;;;;6.50;2.57;;;13.10;99.90;;;;;;5036444;28;20285;-84
2022/06/12 02:01:54;;;;;;;4.23;2.67;;;13.10;99.90;;;;;;5036092;28;20178;-84
2022/06/12 02:04:29;;;;;;;2.43;2.23;;;;;;;;;;5036419;28;20608;-84
2022/06/12 02:07:21;;;;;;;5.40;2.60;;;13.00;99.90;;;;;;5035865;28;20181;-84
2022/06/12 02:10:03;;;;;;;3.90;2.77;;;13.00;99.90;;;;;;5035300;28;20214;-82
2022/06/12 02:15:35;;;;;;;3.43;3.00;;;13.00;99.90;;;;;;5036766;28;20201;-81
2022/06/12 02:18:15;;;;;;;3.70;3.00;;;12.90;99.90;;;;;;5036151;28;20164;-82
2022/06/12 02:20:47;;;;;;;3.57;2.33;;;12.90;99.90;;;;;;5035111;28;20228;-82
2022/06/12 02:23:31;;;;;;;3.27;2.97;;;12.90;99.90;;;;;;5034839;28;20193;-82
2022/06/12 02:25:57;;;;;;;5.03;3.07;;;12.90;99.90;;;;;;5035890;28;20570;-83
2022/06/12 02:28:29;;;;;;;2.90;2.47;;;12.80;99.90;;;;;;5035060;28;20196;-82
2022/06/12 02:31:00;;;;;;;4.10;2.83;;;12.80;99.90;;;;;;5033511;28;20583;-84
2022/06/12 02:33:41;;;;;;;3.83;3.03;;;12.60;99.90;;;;;;5035096;28;20250;-82
2022/06/12 02:36:15;;;;;;;4.70;2.90;;;12.70;99.90;;;;;;5033824;28;20189;-81
2022/06/12 02:38:57;;;;;;;4.37;2.80;;;12.70;99.90;;;;;;5033401;28;20194;-82
2022/06/12 02:41:33;;;;;;;3.40;2.80;;;12.60;99.90;;;;;;5039270;28;20150;-83
2022/06/12 02:44:04;;;;;;;8.53;2.83;;;12.60;99.90;;;;;;5036172;28;20189;-85
2022/06/12 02:46:40;;;;;;;3.30;2.60;;;12.60;99.90;;;;;;5037517;28;20178;-85
2022/06/12 02:49:09;;;;;;;4.43;2.70;;;12.60;99.90;;;;;;5036680;28;20197;-83
2022/06/12 02:51:40;;;;;;;3.93;2.80;;;12.60;99.90;;;;;;5037027;28;20208;-83
2022/06/12 02:54:06;;;;;;;2.90;2.63;;;12.50;99.90;;;;;;5043964;28;20194;-81
2022/06/12 02:56:54;;;;;;;3.40;3.03;;;12.60;99.90;;;;;;5051814;28;20174;-82
2022/06/12 02:59:46;;;;;;;5.47;2.60;;;12.60;99.90;;;;;;5051400;28;20221;-83
2022/06/12 03:02:11;;;;;;;7.03;2.63;;;12.60;99.90;;;;;;5036303;28;20177;-83
2022/06/12 03:04:40;;;;;;;2.70;2.50;;;12.60;99.90;;;;;;5037632;28;20224;-83
2022/06/12 03:07:06;;;;;;;4.30;2.50;;;12.70;99.90;;;;;;5037496;28;20534;-82
2022/06/12 03:09:32;;;;;;;2.90;2.53;;;;;;;;;;5037448;28;20213;-83
2022/06/12 03:11:58;;;;;;;2.77;2.13;;;12.70;99.90;;;;;;5035512;28;20186;-83
2022/06/12 03:14:25;;;;;;;2.73;2.33;;;12.70;99.90;;;;;;5036172;28;20212;-85
2022/06/12 03:16:51;;;;;;;3.27;2.83;;;12.70;99.90;;;;;;5035919;28;20186;-85
2022/06/12 03:19:42;;;;;;;2.67;2.17;;;12.70;99.90;;;;;;5037260;28;20574;-83
2022/06/12 03:22:23;;;;;;;4.30;2.40;;;12.70;99.90;;;;;;5036697;28;20658;-85
2022/06/12 03:25:33;;;;;;;4.40;2.37;;;12.70;99.90;;;;;;5037438;28;20180;-84
2022/06/12 03:28:10;;;;;;;2.27;2.00;;;12.80;99.90;;;;;;5034539;28;20190;-85
2022/06/12 03:30:49;;;;;;;4.30;2.13;;;12.70;99.90;;;;;;5037416;28;20162;-85
2022/06/12 03:34:04;;;;;;;2.60;2.30;;;12.70;99.90;;;;;;5036394;28;20204;-83
2022/06/12 03:36:42;;;;;;;4.33;2.40;;;12.80;99.90;;;;;;4960653;28;20219;-83
2022/06/12 03:39:29;;;;;;;2.73;2.47;;;12.70;99.90;;;;;;4977679;28;20215;-82
2022/06/12 03:42:20;;;;;;;3.97;2.33;;;12.70;99.90;;;;;;5019198;28;20220;-83
2022/06/12 03:45:00;;;;;;;4.43;2.20;;;12.80;99.90;;;;;;5037276;28;20173;-85
2022/06/12 03:47:59;;;;;;;2.47;2.00;;;12.80;99.90;;;;;;5038755;28;20196;-84
2022/06/12 03:50:56;;;;;;;3.97;2.10;;;12.80;99.90;;;;;;5036284;28;20179;-83
2022/06/12 03:53:40;;;;;;;3.53;2.40;;;12.80;99.90;;;;;;5037475;28;20596;-85
2022/06/12 03:59:25;;;;;;;3.13;1.93;;;12.90;99.90;;;;;;5023688;28;20216;-82
2022/06/12 04:01:51;;;;;;;4.87;1.90;;;12.80;99.90;;;;;;5038716;28;20261;-83
2022/06/12 04:04:20;;;;;;;2.20;2.00;;;12.80;99.90;;;;;;5039605;28;20174;-83
2022/06/12 04:06:47;;;;;;;2.70;2.23;;;12.80;99.90;;;;;;5038665;28;20175;-83
2022/06/12 04:09:19;;;;;;;3.33;1.87;;;12.90;99.90;;;;;;5038002;28;20210;-84
2022/06/12 04:11:59;;;;;;;2.23;1.93;;;12.90;99.90;;;;;;5049541;28;20258;-83
2022/06/12 04:14:31;;;;;;;3.40;2.20;;;13.00;99.90;;;;;;5049091;28;20202;-82
2022/06/12 04:17:01;;;;;;;2.70;2.50;;;13.00;99.90;;;;;;5050042;28;20155;-83
2022/06/12 04:19:29;;;;;;;2.53;2.07;;;13.10;99.90;;;;;;5039217;28;20205;-83
2022/06/12 04:21:54;;;;;;;4.07;2.37;;;13.10;99.90;;;;;;5036832;28;20179;-83
2022/06/12 04:24:42;;;;;;;2.50;1.90;;;13.10;99.90;;;;;;5039473;28;20239;-82
2022/06/12 04:27:26;;;;;;;2.80;1.97;;;13.20;99.90;;;;;;5040001;28;20178;-83
2022/06/12 04:29:58;;;;;;;2.83;2.20;;;13.20;99.90;;;;;;5039888;28;20209;-83
2022/06/12 04:32:25;;;;;;;2.17;1.80;;;13.20;99.90;;;;;;5041546;28;20205;-84
2022/06/12 04:34:52;;;;;;;2.70;2.00;;;13.30;99.90;;;;;;5039607;28;20222;-83
2022/06/12 04:37:28;;;;;;;3.07;2.10;;;13.30;99.90;;;;;;5040081;28;20178;-84
2022/06/12 04:39:57;;;;;;;3.10;2.10;;;13.30;99.90;;;;;;5040421;28;20193;-85
2022/06/12 04:42:25;;;;;;;3.47;2.03;;;13.40;99.90;;;;;;5041099;28;20174;-83
2022/06/12 04:44:52;;;;;;;6.10;2.00;;;13.40;99.90;;;;;;5041063;28;20189;-83
2022/06/12 04:47:23;;;;;;;3.30;2.13;;;13.50;99.90;;;;;;5049785;28;20198;-86
2022/06/12 04:49:52;;;;;;;6.13;2.27;;;13.50;99.90;;;;;;5054243;28;20225;-83
2022/06/12 04:52:21;;;;;;;3.10;2.13;;;13.60;99.90;;;;;;5046547;28;20220;-83
2022/06/12 04:54:47;;;;;;;2.20;1.80;;;13.60;99.90;;;;;;5040550;28;20229;-83
2022/06/12 04:57:16;;;;;;;3.60;1.97;;;13.70;99.90;;;;;;5039862;28;20774;-83
2022/06/12 04:59:42;;;;;;;4.00;2.00;;;13.70;99.90;;;;;;5040765;28;20182;-83
2022/06/12 05:02:08;;;;;;;2.80;2.00;;;13.80;99.90;;;;;;5040997;28;20212;-83
2022/06/12 05:04:35;;;;;;;3.03;2.30;;;;;;;;;;5039898;28;20181;-83
2022/06/12 05:07:01;;;;;;;2.30;2.10;;;13.90;99.90;;;;;;5039259;28;20648;-83
2022/06/12 05:09:32;;;;;;;3.13;1.97;;;13.90;99.90;;;;;;5038815;28;20292;-83
2022/06/12 05:11:58;;;;;;;2.20;2.00;;;14.00;99.90;;;;;;5040111;28;20190;-83
2022/06/12 05:14:25;;;;;;;5.23;1.90;;;14.10;99.90;;;;;;5039699;28;20218;-83
2022/06/12 05:16:57;;;;;;;2.00;1.80;;;14.10;99.90;;;;;;5038486;28;20178;-82
2022/06/12 05:19:26;;;;;;;3.17;2.13;;;14.30;99.90;;;;;;5037945;28;20744;-82
2022/06/12 05:21:52;;;;;;;2.33;1.80;;;14.30;99.90;;;;;;5039460;28;20174;-83
2022/06/12 05:24:18;;;;;;;2.07;1.77;;;;;;;;;;5037394;28;20182;-83
2022/06/12 05:26:48;;;;;;;3.13;1.87;;;14.60;99.90;;;;;;5038209;28;20183;-82
2022/06/12 05:29:42;;;;;;;2.20;1.60;;;14.70;99.90;;;;;;5035949;28;20627;-83
2022/06/12 05:32:12;;;;;;;2.80;1.60;;;14.70;99.90;;;;;;5031156;28;20202;-82
2022/06/12 05:34:38;;;;;;;3.47;1.70;;;14.90;99.90;;;;;;5036062;28;20205;-82
2022/06/12 05:37:04;;;;;;;2.50;1.97;;;15.00;99.90;;;;;;5035409;28;20182;-82
2022/06/12 05:39:30;;;;;;;2.00;1.73;;;15.10;99.90;;;;;;5038480;28;20198;-83
2022/06/12 05:41:55;;;;;;;2.77;1.77;;;15.10;99.90;;;;;;5038873;28;20541;-82
2022/06/12 05:44:22;;;;;;;4.17;1.80;;;15.20;99.90;;;;;;5041130;28;20716;-84
2022/06/12 05:46:47;;;;;;;2.00;1.80;;;15.30;99.90;;;;;;5039651;28;20178;-83
2022/06/12 05:49:14;;;;;;;1.80;1.70;;;15.40;99.90;;;;;;5038756;28;20223;-83
2022/06/12 05:51:40;;;;;;;3.50;1.90;;;15.50;99.90;;;;;;5038181;28;20221;-83
2022/06/12 05:54:07;;;;;;;1.60;1.50;;;15.50;99.90;;;;;;5040495;28;20229;-84
2022/06/12 05:56:33;;;;;;;3.37;2.00;;;15.60;99.90;;;;;;5039662;28;20638;-83
2022/06/12 05:58:59;;;;;;;2.57;1.80;;;;;;;;;;5040517;28;20289;-82
2022/06/12 06:01:26;;;;;;;1.77;1.60;;;15.70;99.90;;;;;;5039704;28;20355;-83
2022/06/12 06:03:53;;;;;;;2.93;1.67;;;15.80;99.90;;;;;;5039360;28;20182;-85
2022/06/12 06:06:31;;;;;;;1.70;1.60;;;15.90;99.90;;;;;;5039789;28;20182;-84
2022/06/12 06:08:58;;;;;;;3.23;1.90;;;16.00;99.90;;;;;;5038565;28;20213;-84
2022/06/12 06:11:24;;;;;;;3.33;1.43;;;16.10;99.90;;;;;;5038778;28;20182;-84
2022/06/12 06:13:50;;;;;;;3.20;1.60;;;16.20;99.90;;;;;;5040564;28;20188;-84
2022/06/12 06:16:16;;;;;;;2.30;1.67;;;;;;;;;;5041029;28;20249;-84
2022/06/12 06:18:43;;;;;;;2.57;1.73;;;16.50;99.90;;;;;;5039609;28;20201;-84
2022/06/12 06:21:11;;;;;;;2.00;1.73;;;16.50;99.90;;;;;;5039955;28;20300;-84
2022/06/12 06:23:40;;;;;;;2.63;1.50;;;16.60;99.90;;;;;;5039004;28;20206;-83
2022/06/12 06:26:07;;;;;;;3.10;1.87;;;;;;;;;;5037845;28;20675;-84
2022/06/12 06:28:33;;;;;;;2.00;1.70;;;16.80;99.90;;;;;;5040727;28;20271;-83
2022/06/12 06:30:59;;;;;;;3.67;1.60;;;;;;;;;;5039454;28;20186;-83
2022/06/12 06:33:24;;;;;;;2.63;1.83;;;16.90;99.90;;;;;;5038922;28;20190;-84
2022/06/12 06:35:51;;;;;;;1.80;1.70;;;;;;;;;;5040595;28;20236;-84
2022/06/12 06:38:17;;;;;;;4.10;2.33;;;17.30;99.90;;;;;;5041509;28;20178;-83
2022/06/12 06:40:43;;;;;;;2.47;1.97;;;17.50;99.90;;;;;;5039642;28;20182;-83
2022/06/12 06:43:10;;;;;;;2.43;1.70;;;17.50;99.90;;;;;;5041471;28;20170;-84
2022/06/12 06:48:23;;;;;;;3.30;2.03;;;17.60;99.90;;;;;;5040800;28;20603;-84
2022/06/12 06:50:49;;;;;;;2.63;1.80;;;17.70;99.90;;;;;;5052989;28;20181;-83
2022/06/12 06:53:15;;;;;;;2.07;1.70;;;18.10;99.90;;;;;;5039961;28;20208;-83
2022/06/12 06:55:41;;;;;;;3.37;1.80;;;;;;;;;;5039849;28;20551;-84
2022/06/12 06:58:11;;;;;;;2.17;1.60;;;18.10;99.90;;;;;;5040754;28;20224;-84
2022/06/12 07:00:38;;;;;;;4.00;1.50;;;18.20;99.90;;;;;;5040968;28;20178;-83
2022/06/12 07:03:05;;;;;;;2.60;1.80;;;18.30;99.90;;;;;;5037556;28;20618;-83
2022/06/12 07:05:32;;;;;;;1.63;1.50;;;18.50;99.90;;;;;;5037727;28;20174;-83
2022/06/12 07:08:00;;;;;;;1.60;1.50;;;;;;;;;;5037686;28;20198;-83
2022/06/12 07:10:28;;;;;;;2.23;1.90;;;18.60;99.90;;;;;;5036771;28;20169;-83
2022/06/12 07:12:55;;;;;;;3.03;1.70;;;18.80;99.90;;;;;;5037672;28;20232;-83
2022/06/12 07:15:23;;;;;;;1.87;1.77;;;18.90;99.90;;;;;;5036205;28;20210;-83
2022/06/12 07:17:49;;;;;;;1.67;1.53;;;19.10;99.90;;;;;;5037873;28;20172;-83
2022/06/12 07:20:19;;;;;;;1.67;1.53;;;19.40;99.90;;;;;;5036473;28;20204;-83
2022/06/12 07:22:45;;;;;;;2.30;1.53;;;19.40;99.90;;;;;;5036894;28;20294;-83
2022/06/12 07:25:12;;;;;;;2.13;1.80;;;19.50;99.90;;;;;;5036889;28;20206;-83
2022/06/12 07:27:38;;;;;;;2.00;1.63;;;19.70;99.90;;;;;;5038450;28;20207;-80
2022/06/12 07:30:06;;;;;;;4.97;2.00;;;19.90;99.90;;;;;;5039552;28;20194;-81
2022/06/12 07:32:33;;;;;;;2.13;1.63;;;19.90;99.90;;;;;;5039354;28;20180;-81
2022/06/12 07:34:59;;;;;;;1.87;1.67;;;20.00;99.90;;;;;;5038384;28;20224;-82
2022/06/12 07:37:25;;;;;;;2.80;2.10;;;20.10;99.90;;;;;;5039837;28;20684;-83
2022/06/12 07:39:51;;;;;;;1.60;1.50;;;20.30;99.90;;;;;;5037729;28;20207;-83
2022/06/12 07:42:17;;;;;;;1.47;1.27;;;;;;;;;;5038203;28;20254;-83
2022/06/12 07:44:44;;;;;;;1.90;1.40;;;20.50;99.90;;;;;;5040181;28;20178;-86
2022/06/12 07:47:09;;;;;;;1.40;1.30;;;20.60;99.90;;;;;;5039777;28;20546;-85
2022/06/12 07:49:36;;;;;;;1.57;1.47;;;20.80;99.90;;;;;;5036012;28;20205;-83
2022/06/12 07:52:06;;;;;;;1.73;1.40;;;20.80;99.90;;;;;;5037830;28;20179;-84
2022/06/12 07:54:33;;;;;;;2.00;1.80;;;21.40;99.90;;;;;;5037436;28;20292;-85
2022/06/12 07:56:59;;;;;;;1.43;1.23;;;21.20;99.90;;;;;;5037876;28;20182;-86
2022/06/12 07:59:26;;;;;;;2.37;1.43;;;21.40;99.90;;;;;;5042304;28;20201;-83
2022/06/12 08:01:53;;;;;;;1.47;1.37;;;21.40;99.90;;;;;;5041398;28;20691;-83
2022/06/12 08:04:19;;;;;;;2.10;1.50;;;21.60;99.90;;;;;;5048860;28;20206;-83
2022/06/12 08:06:46;;;;;;;1.77;1.30;;;21.80;99.90;;;;;;5054443;28;20183;-83
2022/06/12 08:09:12;;;;;;;2.73;1.60;;;22.10;99.90;;;;;;5037931;28;20308;-83
2022/06/12 08:11:40;;;;;;;3.13;1.80;;;22.20;99.90;;;;;;5037316;28;20220;-82
2022/06/12 08:14:06;;;;;;;2.47;1.50;;;22.30;99.90;;;;;;5037453;28;20210;-82
2022/06/12 08:16:33;;;;;;;1.53;1.40;;;22.40;99.90;;;;;;5037261;28;20565;-83
2022/06/12 08:18:59;;;;;;;1.50;1.40;;;22.50;99.90;;;;;;5039170;28;20194;-84
2022/06/12 08:21:26;;;;;;;3.60;1.60;;;22.60;99.90;;;;;;5040815;28;20217;-84
2022/06/12 08:23:56;;;;;;;2.97;1.20;;;22.80;99.90;;;;;;5041469;28;20273;-84
2022/06/12 08:26:28;;;;;;;1.93;1.70;;;22.90;99.90;;;;;;5041725;28;20183;-84
2022/06/12 08:29:06;;;;;;;1.67;1.57;;;23.00;99.90;;;;;;5043182;28;20198;-85
2022/06/12 08:31:54;;;;;;;5.80;1.53;;;23.00;99.90;;;;;;5039711;28;20174;-84
2022/06/12 08:34:29;;;;;;;3.33;1.53;;;23.10;99.90;;;;;;5041383;28;20202;-85
2022/06/12 08:36:58;;;;;;;1.50;1.40;;;23.30;99.90;;;;;;5041104;28;20174;-84
2022/06/12 08:39:25;;;;;;;2.07;1.40;;;23.40;99.90;;;;;;5041759;28;20257;-85
2022/06/12 08:42:00;;;;;;;1.40;1.30;;;23.50;99.90;;;;;;5041319;28;20268;-85
2022/06/12 08:44:48;;;;;;;1.43;1.33;;;23.60;99.90;;;;;;5040895;28;20253;-84
2022/06/12 08:47:28;;;;;;;2.23;1.50;;;23.70;99.90;;;;;;5040798;28;20183;-84
2022/06/12 08:50:00;;;;;;;1.73;1.10;;;23.80;99.90;;;;;;5039827;28;20202;-84
2022/06/12 08:52:44;;;;;;;2.13;1.40;;;24.00;99.90;;;;;;5040667;28;20636;-85
2022/06/12 08:55:22;;;;;;;1.90;1.40;;;24.10;99.90;;;;;;5041687;28;20196;-84
2022/06/12 08:57:51;;;;;;;1.27;1.17;;;24.30;99.90;;;;;;5042147;28;20183;-85
2022/06/12 09:00:22;;;;;;;2.10;1.23;;;24.40;99.90;;;;;;5042833;28;20306;-85
2022/06/12 09:02:48;;;;;;;1.47;1.20;;;24.50;99.90;;;;;;5042203;28;20271;-85
2022/06/12 09:05:20;;;;;;;2.27;1.30;;;24.60;99.90;;;;;;5042664;28;20222;-86
2022/06/12 09:07:51;;;;;;;2.77;1.20;;;24.60;99.90;;;;;;5050167;28;20197;-85
2022/06/12 09:10:25;;;;;;;8.50;1.20;;;24.80;99.90;;;;;;5041983;28;20210;-86
2022/06/12 09:12:56;;;;;;;1.70;1.30;;;24.80;99.90;;;;;;5040006;28;20172;-85
2022/06/12 09:15:49;;;;;;;1.10;1.00;;;25.00;99.90;;;;;;5040090;28;20214;-86
2022/06/12 09:18:37;;;;;;;3.23;1.20;;;25.10;99.90;;;;;;5043597;28;20165;-86
2022/06/12 09:21:44;;;;;;;1.37;1.23;;;25.20;99.90;;;;;;5043409;28;20177;-87
2022/06/12 09:24:22;;;;;;;3.33;1.30;;;25.30;99.70;;;;;;5041278;28;20184;-86
2022/06/12 09:26:53;;;;;;;1.77;1.00;;;25.40;99.90;;;;;;5039452;28;20192;-86
2022/06/12 09:29:45;;;;;;;1.97;1.20;;;25.50;99.90;;;;;;5038060;28;20288;-84
2022/06/12 09:32:28;;;;;;;1.73;1.23;;;25.60;99.90;;;;;;5045071;28;20175;-83
2022/06/12 09:35:11;;;;;;;1.83;1.13;;;25.80;99.90;;;;;;5044427;28;20230;-84
2022/06/12 09:38:24;;;;;;;1.40;1.00;;;25.80;99.90;;;;;;5046374;28;20182;-84
2022/06/12 09:40:49;;;;;;;2.00;1.10;;;25.90;99.90;;;;;;5040170;28;20260;-84
2022/06/12 09:43:24;;;;;;;1.97;1.30;;;25.90;97.80;;;;;;5040307;28;20599;-84
2022/06/12 09:46:11;;;;;;;1.10;1.00;;;26.00;96.80;;;;;;5040122;28;20204;-84
2022/06/12 09:48:48;;;;;;;2.60;0.97;;;26.10;96.10;;;;;;5041979;28;20237;-84
2022/06/12 09:51:34;;;;;;;1.93;1.00;;;26.20;99.80;;;;;;5042271;28;20170;-82
2022/06/12 09:54:06;;;;;;;1.23;1.07;;;26.50;99.90;;;;;;5042499;28;20181;-86
2022/06/12 09:56:50;;;;;;;1.50;1.10;;;26.70;99.90;;;;;;5040125;28;20241;-84
2022/06/12 09:59:34;;;;;;;2.33;1.10;;;26.70;96.80;;;;;;5038544;28;20217;-82
2022/06/12 10:02:11;;;;;;;2.40;1.20;;;26.60;96.50;;;;;;5038492;28;20255;-82
2022/06/12 10:04:51;;;;;;;2.37;1.10;;;26.80;95.50;;;;;;5040275;28;20162;-83
2022/06/12 10:07:43;;;;;;;10.97;1.67;;;27.00;99.70;;;;;;5039066;28;20182;-81
2022/06/12 10:10:17;;;;;;;2.07;1.17;;;27.30;98.70;;;;;;5039565;28;20635;-83
2022/06/12 10:12:48;;;;;;;2.63;1.23;;;27.40;95.30;;;;;;5040172;28;20164;-82
2022/06/12 10:15:21;;;;;;;1.77;1.30;;;27.50;95.90;;;;;;5039033;28;20193;-82
2022/06/12 10:18:15;;;;;;;1.00;1.00;;;27.50;95.00;;;;;;5038319;28;20242;-81
2022/06/12 10:20:47;;;;;;;3.43;1.70;;;27.70;92.10;;;;;;5025552;28;20206;-81
2022/06/12 10:23:13;;;;;;;1.83;1.30;;;27.60;93.30;;;;;;5036270;28;20164;-81
2022/06/12 10:25:52;;;;;;;1.60;0.90;;;27.80;97.70;;;;;;5037206;28;20650;-81
2022/06/12 10:28:29;;;;;;;1.63;1.27;;;28.00;90.20;;;;;;5038417;28;20168;-80
2022/06/12 10:31:06;;;;;;;1.20;1.07;;;28.00;93.00;;;;;;5038120;28;20165;-82
2022/06/12 10:33:48;;;;;;;1.63;1.10;;;28.00;93.90;;;;;;5038151;28;20166;-82
2022/06/12 10:36:33;;;;;;;2.60;1.10;;;28.10;93.90;;;;;;5037552;28;20173;-81
2022/06/12 10:39:20;;;;;;;2.30;1.20;;;28.30;93.00;;;;;;5038611;28;20220;-81
2022/06/12 10:41:55;;;;;;;1.27;0.90;;;28.50;92.60;;;;;;5036508;28;20173;-81
2022/06/12 10:44:38;;;;;;;1.17;1.00;;;28.70;90.30;;;;;;5036542;28;20183;-83
2022/06/12 10:47:12;;;;;;;2.00;1.20;;;28.70;87.20;;;;;;5034875;28;20177;-83
2022/06/12 10:49:38;;;;;;;2.83;1.20;;;28.50;83.30;;;;;;5034030;28;20250;-82
2022/06/12 10:52:14;;;;;;;1.50;1.17;;;28.40;88.50;;;;;;5034098;28;20178;-82
2022/06/12 10:54:40;;;;;;;1.40;1.10;;;28.40;91.50;;;;;;5036046;28;20201;-82
2022/06/12 10:57:21;;;;;;;3.80;1.10;;;28.50;91.00;;;;;;5036478;28;20181;-82
2022/06/12 10:59:51;;;;;;;1.20;1.10;;;28.80;83.10;;;;;;5040558;28;20312;-82
2022/06/12 11:02:29;;;;;;;1.87;1.17;;;28.80;83.60;;;;;;5040945;28;20172;-84
2022/06/12 11:05:24;;;;;;;1.50;1.00;;;29.00;89.80;;;;;;5041784;28;20172;-85
2022/06/12 11:08:17;;;;;;;1.10;1.00;;;29.30;78.10;;;;;;5042625;28;20174;-83
2022/06/12 11:11:09;;;;;;;1.93;1.07;;;29.50;86.10;;;;;;5039945;28;20277;-83
2022/06/12 11:14:04;;;;;;;3.53;1.10;;;29.70;81.90;;;;;;5049733;28;20180;-82
2022/06/12 11:16:55;;;;;;;1.37;1.00;;;29.60;89.40;;;;;;5050021;28;20188;-82
2022/06/12 11:19:29;;;;;;;3.03;1.10;;;29.80;85.20;;;;;;5041211;28;20203;-81
2022/06/12 11:22:19;;;;;;;4.00;1.10;;;29.90;89.40;;;;;;5042364;28;20182;-84
2022/06/12 11:25:00;;;;;;;3.60;1.20;;;30.10;85.10;;;;;;5041941;28;20179;-82
2022/06/12 11:28:04;;;;;;;1.20;1.10;;;30.30;82.80;;;;;;5038756;28;20165;-81
2022/06/12 11:31:03;;;;;;;1.43;1.10;;;30.30;67.00;;;;;;5039683;28;20171;-81
2022/06/12 11:33:49;;;;;;;1.70;1.10;;;30.10;74.20;;;;;;5043986;28;20208;-82
2022/06/12 11:36:21;;;;;;;2.33;1.00;;;30.40;73.40;;;;;;5045345;28;20177;-81
2022/06/12 11:38:53;;;;;;;1.27;0.97;;;30.40;83.50;;;;;;5045248;28;20231;-80
2022/06/12 11:41:43;;;;;;;1.20;0.83;;;30.40;68.00;;;;;;5043778;28;20186;-80
2022/06/12 11:44:12;;;;;;;3.50;1.10;;;30.50;60.30;;;;;;5045367;28;20178;-80
2022/06/12 11:46:41;;;;;;;1.03;0.80;;;30.60;77.90;;;;;;5043785;28;20190;-82
2022/06/12 11:49:25;;;;;;;1.17;0.90;;;30.80;59.80;;;;;;5044724;28;20736;-82
2022/06/12 11:51:56;;;;;;;2.90;0.90;;;30.90;54.60;;;;;;5044556;28;20236;-82
2022/06/12 11:54:44;;;;;;;2.40;0.80;;;30.90;56.80;;;;;;5044547;28;20620;-83
2022/06/12 11:57:39;;;;;;;1.47;0.90;;;31.10;56.10;;;;;;5042503;28;20723;-83
2022/06/12 12:00:14;;;;;;;1.93;1.40;;;31.40;57.40;;;;;;5042102;28;20194;-84
2022/06/12 12:03:07;;;;;;;1.37;1.00;;;31.50;55.60;;;;;;5046444;28;20173;-83
2022/06/12 12:05:45;;;;;;;1.57;1.10;;;31.40;61.40;;;;;;5044513;28;20176;-81
2022/06/12 12:08:32;;;;;;;1.47;1.00;;;31.60;65.00;;;;;;5046001;28;20189;-82
2022/06/12 12:11:06;;;;;;;1.53;0.87;;;31.60;59.10;;;;;;5046591;28;20221;-82
2022/06/12 12:13:42;;;;;;;2.37;1.27;;;31.80;57.90;;;;;;5048565;28;20160;-81
2022/06/12 12:16:17;;;;;;;1.47;0.93;;;31.80;58.80;;;;;;5046784;28;20202;-81
2022/06/12 12:18:50;;;;;;;1.17;1.00;;;31.80;55.00;;;;;;5045963;28;20198;-81
2022/06/12 12:21:30;;;;;;;1.07;0.90;;;31.90;64.50;;;;;;5045987;28;20244;-82
2022/06/12 12:23:57;;;;;;;1.70;1.20;;;31.90;58.70;;;;;;5045770;28;20248;-82
2022/06/12 12:26:31;;;;;;;1.73;1.00;;;32.20;64.70;;;;;;5045973;28;20642;-82
2022/06/12 12:29:02;;;;;;;1.00;1.00;;;32.70;63.90;;;;;;5045400;28;20198;-82
2022/06/12 12:31:29;;;;;;;1.40;1.20;;;32.70;62.00;;;;;;5047762;28;20172;-81
2022/06/12 12:33:59;;;;;;;1.10;1.00;;;32.90;70.70;;;;;;5045657;28;20197;-82
2022/06/12 12:42:22;;;;;;;1.20;1.00;;;33.50;60.20;;;;;;5047363;28;20175;-83
2022/06/12 12:44:49;;;;;;;1.30;1.20;;;33.60;65.80;;;;;;5044421;28;20179;-83
2022/06/12 12:47:22;;;;;;;1.87;1.20;;;33.50;65.00;;;;;;5051398;28;20172;-82
2022/06/12 12:49:51;;;;;;;1.47;1.27;;;33.10;58.50;;;;;;5050689;28;20208;-81
2022/06/12 12:52:20;;;;;;;1.90;1.50;;;32.80;60.10;;;;;;5049129;28;20231;-81
2022/06/12 12:54:51;;;;;;;3.40;0.97;;;32.70;56.90;;;;;;5047062;28;20205;-81
2022/06/12 12:57:33;;;;;;;1.87;1.10;;;32.80;62.00;;;;;;5046342;28;20688;-84
2022/06/12 13:00:00;;;;;;;1.50;1.40;;;32.60;56.60;;;;;;5044952;28;20202;-82
2022/06/12 13:02:32;;;;;;;1.10;1.00;;;32.60;56.30;;;;;;5044812;28;20175;-82
2022/06/12 13:05:11;;;;;;;3.27;1.77;;;32.50;57.60;;;;;;5044512;28;20271;-81
2022/06/12 13:07:47;;;;;;;1.20;1.10;;;32.60;61.70;;;;;;5044558;28;20221;-82
2022/06/12 13:10:25;;;;;;;1.20;1.10;;;32.70;64.90;;;;;;5044101;28;20210;-81
2022/06/12 13:13:13;;;;;;;1.47;1.30;;;32.60;68.20;;;;;;5044833;28;20543;-81
2022/06/12 13:15:57;;;;;;;1.37;1.20;;;32.80;61.50;;;;;;5042863;28;20314;-81
2022/06/12 13:18:42;;;;;;;2.80;1.00;;;32.80;58.30;;;;;;5044808;28;20245;-82
2022/06/12 13:21:23;;;;;;;1.40;1.27;;;32.80;60.00;;;;;;5043876;28;20175;-81
2022/06/12 13:24:37;;;;;;;1.30;1.20;;;32.80;61.90;;;;;;5046130;28;20326;-82
2022/06/12 13:27:26;;;;;;;1.20;1.10;;;32.70;63.60;;;;;;5031304;28;20233;-81
2022/06/12 13:29:53;;;;;;;1.23;1.13;;;32.40;64.00;;;;;;5039228;28;20209;-81
2022/06/12 13:32:28;;;;;;;1.30;1.10;;;32.40;62.40;;;;;;5038532;28;20177;-82
2022/06/12 13:34:59;;;;;;;1.53;1.13;;;32.40;59.90;;;;;;5039449;28;20801;-81
2022/06/12 13:37:28;;;;;;;2.57;1.43;;;32.20;59.60;;;;;;5039035;28;20162;-81
2022/06/12 13:39:54;;;;;;;1.73;1.20;;;32.20;57.40;;;;;;5039511;28;20205;-81
2022/06/12 13:42:24;;;;;;;1.20;1.00;;;32.20;56.90;;;;;;5041260;28;20639;-81
2022/06/12 13:44:50;;;;;;;2.27;1.00;;;32.20;58.60;;;;;;5041794;28;20185;-81
2022/06/12 13:47:19;;;;;;;1.33;1.10;;;32.20;60.00;;;;;;5038692;28;20201;-82